DAL162 EHAM-KMSP
Flight info
| Callsign | DAL162 |
|---|---|
| Flight time | N/A |
| Altitude | 38000 |
| Route | BERGI L602 NALAX L46 ESHIN N110 ERKIT DCT GOMUP/M085F380 DCT 59N020W 5930N03000W 5930N04000W 59N050W DCT URTAK/N0493F380 DCT 57N070W 54N080W/N0497F400 50N088W DCT DLH DCT MILAC BAINY4 |
| Aircraft | A359/H-SDE2E3GHIJ3J4J5LM1ORWXY/LB1D1 |
Departure
| Time | N/A |
|---|---|
| Airport | Amsterdam Airport Schiphol (EHAM) |
Arrival
| Time | 2026-05-05 15:35 |
|---|---|
| Airport | Minneapolis–Saint Paul International Airport / Wold–Chamberlain Field (KMSP) |
| Time | Latitude | Longitude | Altitude | Speed | Heading |
|---|---|---|---|---|---|
| 2026-05-05 14:35 | 49.46787 | -88.75195 | 39710 ft | 485 kts | 224° |
| 2026-05-05 14:35 | 49.44282 | -88.78678 | 39711 ft | 485 kts | 224° |
| 2026-05-05 14:35 | 49.39286 | -88.85610 | 39717 ft | 485 kts | 224° |
| 2026-05-05 14:36 | 49.34310 | -88.92495 | 39716 ft | 485 kts | 224° |
| 2026-05-05 14:36 | 49.30008 | -88.98429 | 39714 ft | 485 kts | 224° |
| 2026-05-05 14:37 | 49.25001 | -89.05320 | 39724 ft | 484 kts | 224° |
| 2026-05-05 14:37 | 49.19999 | -89.12184 | 39735 ft | 483 kts | 224° |
| 2026-05-05 14:38 | 49.14987 | -89.19043 | 39732 ft | 483 kts | 224° |
| 2026-05-05 14:38 | 49.10009 | -89.25836 | 39733 ft | 484 kts | 224° |
| 2026-05-05 14:39 | 49.05001 | -89.32650 | 39740 ft | 483 kts | 224° |
| 2026-05-05 14:39 | 48.99977 | -89.39466 | 39741 ft | 482 kts | 224° |
| 2026-05-05 14:40 | 48.94970 | -89.46242 | 39739 ft | 482 kts | 224° |
| 2026-05-05 14:40 | 48.89990 | -89.52961 | 39746 ft | 482 kts | 224° |
| 2026-05-05 14:41 | 48.84980 | -89.59703 | 39747 ft | 482 kts | 224° |
| 2026-05-05 14:41 | 48.79954 | -89.66446 | 39749 ft | 482 kts | 224° |
| 2026-05-05 14:42 | 48.74933 | -89.73165 | 39749 ft | 482 kts | 224° |
| 2026-05-05 14:42 | 48.69902 | -89.79878 | 39752 ft | 482 kts | 224° |
| 2026-05-05 14:43 | 48.64901 | -89.86533 | 39738 ft | 482 kts | 224° |
| 2026-05-05 14:43 | 48.59872 | -89.93206 | 39753 ft | 481 kts | 224° |
| 2026-05-05 14:44 | 48.54840 | -89.99865 | 39755 ft | 481 kts | 224° |
| 2026-05-05 14:44 | 48.49839 | -90.06465 | 39751 ft | 481 kts | 224° |
| 2026-05-05 14:45 | 48.44808 | -90.13088 | 39749 ft | 481 kts | 224° |
| 2026-05-05 14:45 | 48.39767 | -90.19703 | 39757 ft | 480 kts | 224° |
| 2026-05-05 14:46 | 48.34736 | -90.26288 | 39757 ft | 479 kts | 224° |
| 2026-05-05 14:46 | 48.29712 | -90.32847 | 39757 ft | 479 kts | 224° |
| 2026-05-05 14:47 | 48.24675 | -90.39405 | 39761 ft | 479 kts | 224° |
| 2026-05-05 14:47 | 48.19675 | -90.45896 | 39757 ft | 478 kts | 224° |
| 2026-05-05 14:48 | 48.14643 | -90.52412 | 39772 ft | 477 kts | 224° |
| 2026-05-05 14:48 | 48.09622 | -90.58895 | 39762 ft | 477 kts | 224° |
| 2026-05-05 14:49 | 48.04595 | -90.65371 | 39763 ft | 477 kts | 224° |
| 2026-05-05 14:49 | 47.99597 | -90.71791 | 39758 ft | 477 kts | 224° |
| 2026-05-05 14:50 | 47.94565 | -90.78237 | 39772 ft | 476 kts | 224° |
| 2026-05-05 14:50 | 47.89535 | -90.84663 | 39757 ft | 476 kts | 224° |
| 2026-05-05 14:51 | 47.84512 | -90.91064 | 39791 ft | 476 kts | 224° |
| 2026-05-05 14:51 | 47.79481 | -90.97459 | 39779 ft | 476 kts | 224° |
| 2026-05-05 14:52 | 47.74479 | -91.03799 | 39795 ft | 474 kts | 224° |
| 2026-05-05 14:52 | 47.69460 | -91.10145 | 39797 ft | 474 kts | 224° |
| 2026-05-05 14:53 | 47.64435 | -91.16482 | 39799 ft | 474 kts | 224° |
| 2026-05-05 14:53 | 47.59447 | -91.22755 | 39802 ft | 474 kts | 224° |
| 2026-05-05 14:54 | 47.54413 | -91.29069 | 39808 ft | 473 kts | 224° |
| 2026-05-05 14:54 | 47.49396 | -91.35347 | 39815 ft | 473 kts | 224° |
| 2026-05-05 14:55 | 47.44370 | -91.41620 | 39820 ft | 473 kts | 224° |
| 2026-05-05 14:55 | 47.39376 | -91.47836 | 39820 ft | 473 kts | 224° |
| 2026-05-05 14:56 | 47.34346 | -91.54080 | 39838 ft | 472 kts | 224° |
| 2026-05-05 14:56 | 47.29326 | -91.60295 | 39836 ft | 471 kts | 224° |
| 2026-05-05 14:57 | 47.24312 | -91.66489 | 39841 ft | 471 kts | 224° |
| 2026-05-05 14:57 | 47.19292 | -91.72674 | 39849 ft | 471 kts | 224° |
| 2026-05-05 14:58 | 47.14263 | -91.78855 | 39846 ft | 471 kts | 224° |
| 2026-05-05 14:58 | 47.09263 | -91.84982 | 39832 ft | 470 kts | 224° |
| 2026-05-05 14:59 | 47.04233 | -91.91132 | 39839 ft | 470 kts | 224° |
| 2026-05-05 14:59 | 46.99208 | -91.97261 | 39837 ft | 470 kts | 224° |
| 2026-05-05 15:00 | 46.95026 | -92.02349 | 39810 ft | 470 kts | 224° |
| 2026-05-05 15:00 | 46.89184 | -92.09439 | 39832 ft | 469 kts | 224° |
| 2026-05-05 15:01 | 46.84155 | -92.15525 | 39833 ft | 469 kts | 224° |
| 2026-05-05 15:01 | 46.79281 | -92.21805 | 39845 ft | 465 kts | 230° |
| 2026-05-05 15:02 | 46.74776 | -92.28572 | 39844 ft | 465 kts | 230° |
| 2026-05-05 15:02 | 46.70317 | -92.35312 | 39840 ft | 465 kts | 230° |
| 2026-05-05 15:03 | 46.65825 | -92.42097 | 39841 ft | 465 kts | 230° |
| 2026-05-05 15:03 | 46.61337 | -92.48862 | 39841 ft | 464 kts | 230° |
| 2026-05-05 15:04 | 46.56877 | -92.55570 | 39844 ft | 464 kts | 230° |
| 2026-05-05 15:04 | 46.52387 | -92.62305 | 39874 ft | 464 kts | 230° |
| 2026-05-05 15:05 | 46.45660 | -92.72365 | 39887 ft | 462 kts | 230° |
| 2026-05-05 15:06 | 46.41204 | -92.79009 | 39886 ft | 462 kts | 230° |
| 2026-05-05 15:06 | 46.36718 | -92.85680 | 39765 ft | 463 kts | 230° |
| 2026-05-05 15:06 | 46.34474 | -92.89011 | 39562 ft | 461 kts | 230° |
| 2026-05-05 15:07 | 46.32244 | -92.92313 | 39134 ft | 457 kts | 230° |
| 2026-05-05 15:07 | 46.30032 | -92.95588 | 38541 ft | 456 kts | 230° |
| 2026-05-05 15:07 | 46.27807 | -92.98879 | 37782 ft | 456 kts | 230° |
| 2026-05-05 15:07 | 46.25599 | -93.02140 | 37090 ft | 454 kts | 230° |
| 2026-05-05 15:08 | 46.23390 | -93.05399 | 36417 ft | 453 kts | 230° |
| 2026-05-05 15:08 | 46.21184 | -93.08649 | 35731 ft | 453 kts | 231° |
| 2026-05-05 15:08 | 46.19009 | -93.11850 | 35038 ft | 452 kts | 231° |
| 2026-05-05 15:08 | 46.16805 | -93.15090 | 34302 ft | 453 kts | 231° |
| 2026-05-05 15:09 | 46.14594 | -93.18337 | 33407 ft | 455 kts | 231° |
| 2026-05-05 15:09 | 46.12371 | -93.21598 | 32491 ft | 455 kts | 231° |
| 2026-05-05 15:09 | 46.10157 | -93.24838 | 31690 ft | 452 kts | 231° |
| 2026-05-05 15:09 | 46.07958 | -93.28052 | 30857 ft | 450 kts | 231° |
| 2026-05-05 15:10 | 46.05761 | -93.31261 | 30077 ft | 447 kts | 231° |
| 2026-05-05 15:10 | 46.03592 | -93.34423 | 29338 ft | 441 kts | 231° |
| 2026-05-05 15:10 | 46.01470 | -93.37494 | 28716 ft | 435 kts | 230° |
| 2026-05-05 15:10 | 45.99216 | -93.40377 | 28118 ft | 431 kts | 226° |
| 2026-05-05 15:11 | 45.96943 | -93.43140 | 27501 ft | 426 kts | 226° |
| 2026-05-05 15:11 | 45.94706 | -93.45882 | 26877 ft | 421 kts | 227° |
| 2026-05-05 15:11 | 45.92501 | -93.48607 | 26264 ft | 416 kts | 227° |
| 2026-05-05 15:11 | 45.90320 | -93.51316 | 25636 ft | 411 kts | 227° |
| 2026-05-05 15:12 | 45.88173 | -93.53988 | 25057 ft | 407 kts | 227° |
| 2026-05-05 15:12 | 45.86045 | -93.56639 | 24470 ft | 403 kts | 227° |
| 2026-05-05 15:12 | 45.83955 | -93.59239 | 24277 ft | 390 kts | 227° |
| 2026-05-05 15:12 | 45.81940 | -93.61740 | 24148 ft | 375 kts | 227° |
| 2026-05-05 15:13 | 45.80031 | -93.64109 | 24021 ft | 362 kts | 227° |
| 2026-05-05 15:13 | 45.78020 | -93.66296 | 23884 ft | 356 kts | 218° |
| 2026-05-05 15:13 | 45.75788 | -93.67694 | 23714 ft | 358 kts | 204° |
| 2026-05-05 15:13 | 45.73276 | -93.68170 | 23133 ft | 374 kts | 185° |
| 2026-05-05 15:14 | 45.70678 | -93.67507 | 22569 ft | 386 kts | 169° |
| 2026-05-05 15:14 | 45.68152 | -93.66192 | 22067 ft | 387 kts | 165° |
| 2026-05-05 15:14 | 45.65639 | -93.64804 | 21550 ft | 385 kts | 165° |
| 2026-05-05 15:14 | 45.63142 | -93.63442 | 21037 ft | 384 kts | 165° |
| 2026-05-05 15:15 | 45.60645 | -93.62094 | 20543 ft | 382 kts | 165° |
| 2026-05-05 15:15 | 45.58200 | -93.60780 | 20119 ft | 379 kts | 165° |
| 2026-05-05 15:15 | 45.55736 | -93.59460 | 19669 ft | 377 kts | 165° |
| 2026-05-05 15:15 | 45.53300 | -93.58127 | 19231 ft | 375 kts | 164° |
| 2026-05-05 15:16 | 45.50869 | -93.56797 | 18787 ft | 373 kts | 165° |
| 2026-05-05 15:16 | 45.48449 | -93.55479 | 18344 ft | 371 kts | 165° |
| 2026-05-05 15:16 | 45.46043 | -93.54174 | 17877 ft | 370 kts | 164° |
| 2026-05-05 15:16 | 45.43649 | -93.52875 | 17426 ft | 367 kts | 164° |
| 2026-05-05 15:17 | 45.41273 | -93.51589 | 16988 ft | 364 kts | 164° |
| 2026-05-05 15:17 | 45.38912 | -93.50313 | 16565 ft | 361 kts | 164° |
| 2026-05-05 15:17 | 45.36601 | -93.49065 | 16140 ft | 359 kts | 164° |
| 2026-05-05 15:17 | 45.34276 | -93.47812 | 15753 ft | 356 kts | 164° |
| 2026-05-05 15:18 | 45.31966 | -93.46580 | 15335 ft | 353 kts | 165° |
| 2026-05-05 15:18 | 45.29673 | -93.45357 | 14935 ft | 352 kts | 165° |
| 2026-05-05 15:18 | 45.27383 | -93.44135 | 14509 ft | 350 kts | 165° |
| 2026-05-05 15:18 | 45.25106 | -93.42922 | 14090 ft | 349 kts | 164° |
| 2026-05-05 15:19 | 45.22842 | -93.41717 | 13690 ft | 346 kts | 164° |
| 2026-05-05 15:19 | 45.20629 | -93.40536 | 13531 ft | 334 kts | 164° |
| 2026-05-05 15:19 | 45.18518 | -93.39408 | 13383 ft | 322 kts | 165° |
| 2026-05-05 15:19 | 45.16452 | -93.38309 | 13182 ft | 314 kts | 165° |
| 2026-05-05 15:20 | 45.14422 | -93.37234 | 12876 ft | 311 kts | 165° |
| 2026-05-05 15:20 | 45.12418 | -93.36092 | 12524 ft | 309 kts | 161° |
| 2026-05-05 15:20 | 45.10469 | -93.34837 | 12220 ft | 307 kts | 160° |
| 2026-05-05 15:20 | 45.08535 | -93.33589 | 11910 ft | 305 kts | 160° |
| 2026-05-05 15:21 | 45.06608 | -93.32363 | 11596 ft | 302 kts | 160° |
| 2026-05-05 15:21 | 45.04644 | -93.31411 | 11292 ft | 295 kts | 174° |
| 2026-05-05 15:21 | 45.02664 | -93.30957 | 10986 ft | 290 kts | 178° |
| 2026-05-05 15:21 | 45.00672 | -93.30594 | 10686 ft | 288 kts | 178° |
| 2026-05-05 15:22 | 44.98687 | -93.30234 | 10397 ft | 287 kts | 178° |
| 2026-05-05 15:22 | 44.96715 | -93.29872 | 10094 ft | 285 kts | 178° |
| 2026-05-05 15:22 | 44.94749 | -93.29509 | 9810 ft | 284 kts | 178° |
| 2026-05-05 15:22 | 44.92826 | -93.29149 | 9612 ft | 275 kts | 178° |
| 2026-05-05 15:23 | 44.90960 | -93.28799 | 9387 ft | 267 kts | 178° |
| 2026-05-05 15:23 | 44.89140 | -93.28459 | 9207 ft | 258 kts | 178° |
| 2026-05-05 15:23 | 44.87376 | -93.28130 | 9063 ft | 254 kts | 178° |
| 2026-05-05 15:23 | 44.85646 | -93.27812 | 8927 ft | 254 kts | 178° |
| 2026-05-05 15:24 | 44.83893 | -93.27489 | 8744 ft | 254 kts | 178° |
| 2026-05-05 15:24 | 44.82142 | -93.27165 | 8509 ft | 253 kts | 178° |
| 2026-05-05 15:24 | 44.80400 | -93.26842 | 8264 ft | 253 kts | 178° |
| 2026-05-05 15:24 | 44.78688 | -93.26258 | 8015 ft | 257 kts | 158° |
| 2026-05-05 15:25 | 44.77351 | -93.24623 | 7943 ft | 258 kts | 124° |
| 2026-05-05 15:25 | 44.76393 | -93.22480 | 7941 ft | 259 kts | 120° |
| 2026-05-05 15:25 | 44.75468 | -93.20305 | 7946 ft | 260 kts | 120° |
| 2026-05-05 15:25 | 44.74536 | -93.18125 | 7821 ft | 260 kts | 120° |
| 2026-05-05 15:26 | 44.73632 | -93.15976 | 7667 ft | 254 kts | 120° |
| 2026-05-05 15:26 | 44.72736 | -93.13853 | 7524 ft | 245 kts | 120° |
| 2026-05-05 15:26 | 44.71889 | -93.11853 | 7352 ft | 238 kts | 120° |
| 2026-05-05 15:26 | 44.71050 | -93.09882 | 7194 ft | 231 kts | 120° |
| 2026-05-05 15:27 | 44.70245 | -93.07974 | 7021 ft | 222 kts | 118° |
| 2026-05-05 15:27 | 44.69637 | -93.05994 | 6856 ft | 220 kts | 102° |
| 2026-05-05 15:27 | 44.69452 | -93.03884 | 6517 ft | 216 kts | 82° |
| 2026-05-05 15:27 | 44.69723 | -93.01847 | 6192 ft | 210 kts | 64° |
| 2026-05-05 15:28 | 44.70378 | -93.00058 | 5878 ft | 202 kts | 48° |
| 2026-05-05 15:28 | 44.71315 | -92.98650 | 5554 ft | 194 kts | 32° |
| 2026-05-05 15:28 | 44.72430 | -92.97683 | 5256 ft | 188 kts | 18° |
| 2026-05-05 15:28 | 44.73662 | -92.97155 | 4940 ft | 184 kts | 4° |
| 2026-05-05 15:29 | 44.74921 | -92.97080 | 4626 ft | 180 kts | 351° |
| 2026-05-05 15:29 | 44.76124 | -92.97435 | 4413 ft | 172 kts | 338° |
| 2026-05-05 15:29 | 44.77187 | -92.98152 | 4386 ft | 170 kts | 327° |
| 2026-05-05 15:29 | 44.78104 | -92.99178 | 4272 ft | 167 kts | 315° |
| 2026-05-05 15:30 | 44.78826 | -93.00464 | 4034 ft | 167 kts | 304° |
| 2026-05-05 15:30 | 44.79439 | -93.01862 | 3824 ft | 167 kts | 302° |
| 2026-05-05 15:30 | 44.80026 | -93.03231 | 3581 ft | 163 kts | 303° |
| 2026-05-05 15:30 | 44.80605 | -93.04570 | 3373 ft | 156 kts | 303° |
| 2026-05-05 15:31 | 44.81159 | -93.05851 | 3152 ft | 151 kts | 302° |
| 2026-05-05 15:31 | 44.81703 | -93.07101 | 2967 ft | 149 kts | 303° |
| 2026-05-05 15:31 | 44.82246 | -93.08341 | 2775 ft | 148 kts | 303° |
| 2026-05-05 15:31 | 44.82785 | -93.09581 | 2572 ft | 149 kts | 302° |
| 2026-05-05 15:32 | 44.83321 | -93.10820 | 2387 ft | 147 kts | 302° |
| 2026-05-05 15:32 | 44.83846 | -93.12031 | 2172 ft | 142 kts | 303° |
| 2026-05-05 15:32 | 44.84343 | -93.13172 | 1995 ft | 132 kts | 302° |
| 2026-05-05 15:32 | 44.84803 | -93.14235 | 1826 ft | 122 kts | 302° |
| 2026-05-05 15:33 | 44.85240 | -93.15240 | 1698 ft | 122 kts | 303° |
| 2026-05-05 15:33 | 44.85687 | -93.16265 | 1476 ft | 123 kts | 303° |
| 2026-05-05 15:33 | 44.86128 | -93.17307 | 1313 ft | 123 kts | 302° |
| 2026-05-05 15:33 | 44.86572 | -93.18336 | 1149 ft | 122 kts | 303° |
| 2026-05-05 15:34 | 44.87011 | -93.19339 | 1007 ft | 119 kts | 302° |
| 2026-05-05 15:34 | 44.87450 | -93.20345 | 868 ft | 121 kts | 301° |
| 2026-05-05 15:34 | 44.87867 | -93.21311 | 826 ft | 100 kts | 301° |
| 2026-05-05 15:34 | 44.88150 | -93.21961 | 827 ft | 57 kts | 301° |
| 2026-05-05 15:35 | 44.88279 | -93.22259 | 825 ft | 13 kts | 301° |
| 2026-05-05 15:35 | 44.88316 | -93.22347 | 825 ft | 11 kts | 301° |
| 2026-05-05 15:35 | 44.88371 | -93.22436 | 825 ft | 13 kts | 332° |
| 2026-05-05 15:35 | 44.88432 | -93.22418 | 822 ft | 0 kts | 28° |
| 2026-05-05 15:36 | 44.88446 | -93.22400 | 822 ft | 6 kts | 54° |
| 2026-05-05 15:36 | 44.88424 | -93.22302 | 825 ft | 14 kts | 119° |
| 2026-05-05 15:36 | 44.88371 | -93.22178 | 828 ft | 16 kts | 120° |
| 2026-05-05 15:36 | 44.88307 | -93.22031 | 828 ft | 19 kts | 122° |
| 2026-05-05 15:37 | 44.88236 | -93.21864 | 829 ft | 21 kts | 121° |
| 2026-05-05 15:37 | 44.88163 | -93.21698 | 828 ft | 8 kts | 122° |
| 2026-05-05 15:37 | 44.88148 | -93.21636 | 824 ft | 8 kts | 103° |
| 2026-05-05 15:37 | 44.88155 | -93.21544 | 826 ft | 11 kts | 78° |
| 2026-05-05 15:38 | 44.88163 | -93.21469 | 824 ft | 6 kts | 84° |
| 2026-05-05 15:38 | 44.88167 | -93.21413 | 826 ft | 6 kts | 85° |
| 2026-05-05 15:38 | 44.88169 | -93.21368 | 830 ft | 3 kts | 86° |
| 2026-05-05 15:38 | 44.88169 | -93.21362 | 831 ft | 0 kts | 86° |